createdAt,value
2023-03-12T00:00:48.833Z,65.56
2023-03-12T00:03:17.656Z,65.58
2023-03-12T00:05:53.400Z,65.44
2023-03-12T00:08:20.108Z,65.28
2023-03-12T00:10:53.618Z,64.83
2023-03-12T00:13:27.560Z,65.60
2023-03-12T00:15:57.342Z,65.69
2023-03-12T00:18:27.001Z,65.84
2023-03-12T00:20:55.013Z,65.61
2023-03-12T00:23:26.043Z,66.42
2023-03-12T00:26:03.814Z,66.83
2023-03-12T00:28:31.306Z,66.60
2023-03-12T00:30:58.817Z,66.97
2023-03-12T00:33:26.276Z,66.74
2023-03-12T00:35:53.976Z,66.58
2023-03-12T00:38:23.400Z,66.62
2023-03-12T00:40:50.137Z,66.51
2023-03-12T00:43:16.790Z,66.39
2023-03-12T00:45:43.413Z,66.08
2023-03-12T00:48:10.234Z,66.00
2023-03-12T00:50:36.970Z,65.61
2023-03-12T00:53:12.836Z,65.51
2023-03-12T00:55:44.412Z,65.67
2023-03-12T00:58:11.232Z,66.17
2023-03-12T01:00:38.029Z,66.39
2023-03-12T01:03:04.856Z,66.39
2023-03-12T01:05:34.105Z,66.44
2023-03-12T01:08:01.803Z,66.69
2023-03-12T01:10:30.410Z,66.78
2023-03-12T01:13:02.132Z,66.86
2023-03-12T01:15:32.071Z,66.75
2023-03-12T01:17:58.812Z,67.08
2023-03-12T01:20:25.964Z,67.59
2023-03-12T01:23:00.523Z,67.56
2023-03-12T01:25:27.370Z,68.06
2023-03-12T01:27:54.309Z,68.01
2023-03-12T01:30:20.929Z,68.40
2023-03-12T01:32:47.746Z,68.80
2023-03-12T01:35:15.776Z,68.45
2023-03-12T01:37:42.545Z,68.46
2023-03-12T01:40:16.193Z,68.13
2023-03-12T01:42:52.731Z,68.48
2023-03-12T01:46:13.876Z,68.36
2023-03-12T01:49:04.539Z,68.43
2023-03-12T01:51:39.604Z,68.44
2023-03-12T01:54:11.860Z,68.39
2023-03-12T01:56:42.344Z,68.32
2023-03-12T01:59:20.372Z,67.80
2023-03-12T02:01:48.498Z,68.31
2023-03-12T02:04:20.813Z,68.04
2023-03-12T02:06:54.885Z,68.40
2023-03-12T02:09:22.130Z,68.05
2023-03-12T02:11:56.665Z,68.01
2023-03-12T02:14:29.472Z,68.28
2023-03-12T02:16:59.935Z,68.47
2023-03-12T02:19:40.531Z,67.59
2023-03-12T02:22:08.042Z,67.96
2023-03-12T02:24:52.761Z,68.37
2023-03-12T02:27:21.351Z,68.91
2023-03-12T02:29:54.811Z,69.03
2023-03-12T02:32:28.130Z,68.91
2023-03-12T02:34:57.538Z,68.58
2023-03-12T02:37:24.251Z,69.04
2023-03-12T02:39:58.351Z,68.65
2023-03-12T02:42:25.570Z,69.13
2023-03-12T02:44:52.404Z,68.53
2023-03-12T02:47:19.288Z,68.66
2023-03-12T02:49:49.118Z,68.77
2023-03-12T02:52:24.596Z,69.02
2023-03-12T02:54:58.444Z,69.11
2023-03-12T02:57:27.857Z,69.29
2023-03-12T02:59:56.114Z,69.94
2023-03-12T03:02:23.090Z,69.29
2023-03-12T03:04:50.228Z,69.30
2023-03-12T03:07:17.390Z,69.46
2023-03-12T03:10:00.032Z,69.48
2023-03-12T03:12:26.809Z,69.24
2023-03-12T03:15:02.373Z,69.60
2023-03-12T03:17:29.610Z,69.01
2023-03-12T03:19:56.634Z,69.03
2023-03-12T03:22:23.404Z,69.72
2023-03-12T03:24:50.172Z,70.02
2023-03-12T03:27:16.970Z,68.76
2023-03-12T03:29:46.442Z,69.25
2023-03-12T03:32:22.795Z,69.10
2023-03-12T03:34:55.434Z,69.42
2023-03-12T03:37:22.085Z,69.60
2023-03-12T03:39:48.744Z,69.28
2023-03-12T03:42:15.441Z,69.38
2023-03-12T03:44:42.303Z,68.74
2023-03-12T03:47:11.056Z,69.14
2023-03-12T03:49:39.053Z,68.33
2023-03-12T03:52:06.595Z,67.71
2023-03-12T03:54:34.922Z,67.63
2023-03-12T03:57:04.761Z,67.93
2023-03-12T03:59:39.580Z,67.32
2023-03-12T04:02:06.954Z,68.05
2023-03-12T04:04:33.780Z,67.83
2023-03-12T04:07:00.582Z,67.11
2023-03-12T04:09:40.856Z,67.64
2023-03-12T04:12:10.760Z,67.57
2023-03-12T04:14:40.420Z,66.93
2023-03-12T04:17:09.312Z,67.40
2023-03-12T04:19:36.444Z,67.98
2023-03-12T04:22:07.215Z,67.15
2023-03-12T04:24:34.065Z,66.47
2023-03-12T04:27:00.778Z,66.87
2023-03-12T04:29:27.916Z,66.73
2023-03-12T04:32:01.092Z,67.10
2023-03-12T04:34:34.920Z,66.59
2023-03-12T04:37:16.584Z,67.11
2023-03-12T04:39:46.826Z,67.16
2023-03-12T04:42:13.962Z,67.06
2023-03-12T04:44:41.196Z,67.13
2023-03-12T04:47:07.900Z,67.13
2023-03-12T04:49:37.819Z,67.01
2023-03-12T04:52:07.958Z,67.65
2023-03-12T04:54:34.784Z,66.99
2023-03-12T04:57:01.520Z,67.26
2023-03-12T04:59:28.330Z,66.97
2023-03-12T05:01:58.481Z,66.86
2023-03-12T05:04:25.207Z,67.10
2023-03-12T05:06:54.384Z,66.81
2023-03-12T05:09:21.206Z,66.79
2023-03-12T05:11:48.306Z,66.61
2023-03-12T05:14:25.700Z,66.63
2023-03-12T05:16:54.197Z,67.31
2023-03-12T05:19:25.047Z,67.53
2023-03-12T05:21:58.942Z,67.46
2023-03-12T05:24:29.316Z,67.51
2023-03-12T05:26:56.054Z,66.94
2023-03-12T05:29:22.750Z,66.22
2023-03-12T05:31:57.735Z,66.45
2023-03-12T05:34:28.259Z,67.00
2023-03-12T05:36:54.996Z,66.81
2023-03-12T05:39:22.024Z,67.01
2023-03-12T05:41:48.757Z,66.80
2023-03-12T05:44:16.247Z,66.79
2023-03-12T05:46:43.846Z,66.69
2023-03-12T05:49:12.543Z,67.37
2023-03-12T05:51:39.227Z,66.94
2023-03-12T05:54:06.098Z,66.44
2023-03-12T05:56:40.956Z,66.37
2023-03-12T05:59:18.564Z,66.16
2023-03-12T06:01:45.245Z,66.06
2023-03-12T06:04:23.644Z,66.93
2023-03-12T06:06:50.279Z,66.51
2023-03-12T06:09:16.975Z,65.29
2023-03-12T06:11:49.872Z,65.60
2023-03-12T06:14:16.659Z,65.28
2023-03-12T06:16:43.450Z,65.31
2023-03-12T06:19:19.927Z,65.00
2023-03-12T06:21:47.139Z,66.18
2023-03-12T06:24:23.711Z,65.87
2023-03-12T06:26:50.709Z,65.51
2023-03-12T06:29:17.539Z,64.44
2023-03-12T06:31:52.659Z,64.88
2023-03-12T06:34:20.697Z,64.11
2023-03-12T06:36:47.394Z,63.34
2023-03-12T06:39:19.952Z,64.30
2023-03-12T06:41:49.920Z,63.41
2023-03-12T06:44:19.391Z,64.21
2023-03-12T06:46:52.425Z,63.88
2023-03-12T06:49:19.671Z,64.17
2023-03-12T06:51:46.876Z,64.74
2023-03-12T06:54:13.559Z,63.71
2023-03-12T06:56:43.413Z,63.78
2023-03-12T06:59:12.565Z,63.68
2023-03-12T07:01:39.307Z,63.67
2023-03-12T07:04:06.057Z,63.58
2023-03-12T07:06:32.933Z,64.35
2023-03-12T07:09:02.005Z,64.92
2023-03-12T07:11:28.747Z,63.42
2023-03-12T07:13:55.492Z,63.24
2023-03-12T07:16:28.801Z,63.06
2023-03-12T07:18:59.265Z,63.10
2023-03-12T07:21:30.075Z,63.83
2023-03-12T07:26:37.279Z,62.89
2023-03-12T07:29:09.449Z,64.05
2023-03-12T07:31:36.429Z,63.72
2023-03-12T07:34:06.754Z,62.63
2023-03-12T07:36:34.569Z,62.58
2023-03-12T07:39:01.348Z,63.15
2023-03-12T07:41:30.514Z,64.07
2023-03-12T07:43:57.269Z,64.00
2023-03-12T07:46:26.914Z,63.67
2023-03-12T07:48:53.719Z,62.99
2023-03-12T07:51:20.556Z,62.22
2023-03-12T07:53:51.711Z,63.34
2023-03-12T07:56:18.699Z,63.87
2023-03-12T07:58:45.678Z,62.55
2023-03-12T08:01:20.102Z,61.84
2023-03-12T08:03:50.441Z,62.16
2023-03-12T08:06:17.248Z,61.68
2023-03-12T08:08:44.290Z,62.49
2023-03-12T08:11:11.296Z,62.43
2023-03-12T08:13:40.217Z,62.71
2023-03-12T08:16:12.715Z,62.54
2023-03-12T08:18:39.662Z,61.22
2023-03-12T08:21:06.495Z,61.52
2023-03-12T08:23:41.753Z,60.80
2023-03-12T08:26:08.777Z,59.68
2023-03-12T08:28:35.847Z,60.30
2023-03-12T08:31:02.869Z,59.65
2023-03-12T08:33:32.937Z,60.84
2023-03-12T08:35:59.762Z,60.72
2023-03-12T08:38:34.979Z,60.87
2023-03-12T08:41:02.058Z,60.00
2023-03-12T08:43:29.650Z,59.88
2023-03-12T08:45:58.913Z,59.56
2023-03-12T08:48:38.923Z,60.31
2023-03-12T08:51:09.775Z,60.06
2023-03-12T08:53:37.275Z,61.07
2023-03-12T08:56:07.164Z,60.56
2023-03-12T08:58:49.815Z,59.96
2023-03-12T09:01:16.599Z,60.30
2023-03-12T09:03:43.414Z,60.29
2023-03-12T09:06:19.155Z,59.37
2023-03-12T09:08:47.209Z,59.12
2023-03-12T09:11:17.545Z,58.49
2023-03-12T09:14:26.521Z,58.44
2023-03-12T09:16:34.866Z,57.77
2023-03-12T09:19:01.833Z,57.38
2023-03-12T09:21:29.044Z,56.90
2023-03-12T09:23:56.082Z,56.85
2023-03-12T09:26:22.898Z,56.09
2023-03-12T09:28:57.971Z,56.00
2023-03-12T09:31:25.348Z,56.16
2023-03-12T09:33:57.469Z,56.29
2023-03-12T09:36:24.574Z,56.11
2023-03-12T09:38:51.268Z,55.45
2023-03-12T09:41:29.970Z,56.19
2023-03-12T09:44:12.240Z,56.61
2023-03-12T09:46:45.083Z,55.81
2023-03-12T09:49:34.751Z,55.49
2023-03-12T09:52:34.554Z,56.15
2023-03-12T09:55:16.864Z,55.44
2023-03-12T09:57:45.004Z,55.47
2023-03-12T10:00:15.603Z,56.24
2023-03-12T10:03:20.177Z,55.94
2023-03-12T10:06:06.955Z,55.31
2023-03-12T10:08:39.040Z,54.31
2023-03-12T10:11:34.130Z,54.80
2023-03-12T10:14:24.136Z,53.89
2023-03-12T10:17:16.872Z,54.12
2023-03-12T10:20:17.388Z,55.02
2023-03-12T10:23:02.933Z,54.63
2023-03-12T10:26:02.152Z,54.00
2023-03-12T10:28:42.830Z,53.90
2023-03-12T10:31:43.329Z,54.09
2023-03-12T10:34:30.985Z,53.41
2023-03-12T10:37:03.085Z,54.52
2023-03-12T10:39:29.762Z,54.22
2023-03-12T10:42:01.458Z,53.21
2023-03-12T10:44:29.120Z,52.94
2023-03-12T10:47:24.386Z,54.10
2023-03-12T10:49:54.330Z,53.93
2023-03-12T10:52:24.166Z,53.86
2023-03-12T10:54:59.243Z,53.82
2023-03-12T10:57:40.634Z,53.34
2023-03-12T11:00:18.552Z,52.65
2023-03-12T11:02:46.607Z,52.01
2023-03-12T11:05:34.245Z,52.42
2023-03-12T11:08:13.322Z,52.30
2023-03-12T11:10:49.224Z,51.92
2023-03-12T11:13:43.964Z,51.99
2023-03-12T11:16:10.694Z,51.83
2023-03-12T11:18:38.866Z,52.07
2023-03-12T11:21:10.000Z,52.02
2023-03-12T11:24:09.557Z,51.91
2023-03-12T11:26:54.528Z,51.37
2023-03-12T11:29:37.071Z,51.23
2023-03-12T11:32:25.944Z,51.38
2023-03-12T11:34:53.339Z,50.92
2023-03-12T11:37:27.238Z,51.71
2023-03-12T11:40:16.349Z,50.94
2023-03-12T11:43:07.643Z,50.29
2023-03-12T11:45:58.308Z,51.46
2023-03-12T11:48:43.553Z,51.00
2023-03-12T11:52:17.273Z,51.72
2023-03-12T11:55:18.296Z,51.77
2023-03-12T11:58:24.588Z,52.12
2023-03-12T12:01:08.113Z,51.60
2023-03-12T12:03:56.209Z,52.78
2023-03-12T12:06:54.404Z,52.73
2023-03-12T12:09:34.783Z,52.99
2023-03-12T12:12:36.626Z,52.34
2023-03-12T12:15:04.065Z,52.78
2023-03-12T12:17:33.683Z,52.49
2023-03-12T12:20:38.425Z,52.92
2023-03-12T12:23:15.925Z,53.19
2023-03-12T12:26:15.353Z,52.49
2023-03-12T12:29:22.148Z,52.58
2023-03-12T12:31:57.423Z,52.67
2023-03-12T12:35:02.022Z,52.46
2023-03-12T12:37:53.423Z,53.02
2023-03-12T12:40:34.677Z,53.17
2023-03-12T12:43:18.708Z,52.82
2023-03-12T12:45:48.686Z,53.15
2023-03-12T12:48:53.669Z,53.79
2023-03-12T12:51:31.485Z,53.47
2023-03-12T12:54:20.340Z,54.10
2023-03-12T12:57:04.632Z,53.52
2023-03-12T12:59:58.013Z,53.60
2023-03-12T13:02:35.168Z,53.87
2023-03-12T13:05:24.586Z,54.22
2023-03-12T13:07:51.390Z,54.19
2023-03-12T13:11:02.503Z,53.12
2023-03-12T13:14:35.029Z,53.85
2023-03-12T13:17:30.346Z,53.89
2023-03-12T13:20:08.630Z,54.04
2023-03-12T13:22:49.744Z,53.46
2023-03-12T13:25:49.653Z,54.32
2023-03-12T13:28:51.829Z,54.10
2023-03-12T13:31:25.103Z,54.00
2023-03-12T13:34:00.049Z,53.98
2023-03-12T13:36:31.283Z,53.98
2023-03-12T13:39:07.040Z,54.32
2023-03-12T13:41:45.915Z,54.29
2023-03-12T13:44:25.460Z,54.04
2023-03-12T13:47:01.401Z,54.31
2023-03-12T13:50:05.144Z,54.69
2023-03-12T13:52:47.069Z,53.85
2023-03-12T13:55:27.873Z,54.10
2023-03-12T13:58:10.396Z,54.54
2023-03-12T14:00:48.418Z,54.60
2023-03-12T14:03:27.419Z,53.81
2023-03-12T14:06:11.113Z,54.88
2023-03-12T14:08:53.144Z,54.12
2023-03-12T14:11:45.463Z,54.68
2023-03-12T14:14:28.664Z,54.51
2023-03-12T14:17:10.979Z,54.48
2023-03-12T14:19:51.685Z,54.59
2023-03-12T14:22:33.775Z,54.53
2023-03-12T14:25:12.895Z,54.41
2023-03-12T14:27:55.025Z,54.50
2023-03-12T14:30:51.406Z,54.48
2023-03-12T14:33:25.102Z,54.35
2023-03-12T14:36:03.668Z,54.74
2023-03-12T14:38:32.973Z,55.13
2023-03-12T14:41:14.132Z,54.36
2023-03-12T14:43:43.599Z,53.97
2023-03-12T14:46:16.983Z,53.87
2023-03-12T14:48:47.226Z,54.06
2023-03-12T14:51:41.739Z,54.33
2023-03-12T14:54:18.303Z,54.67
2023-03-12T14:56:56.275Z,54.98
2023-03-12T14:59:40.896Z,54.85
2023-03-12T15:05:18.103Z,55.37
2023-03-12T15:07:49.192Z,55.42
2023-03-12T15:10:30.717Z,54.78
2023-03-12T15:13:02.712Z,55.15
2023-03-12T15:15:40.371Z,55.14
2023-03-12T15:18:38.277Z,55.03
2023-03-12T15:21:11.271Z,55.10
2023-03-12T15:23:39.435Z,54.54
2023-03-12T15:26:10.366Z,54.78
2023-03-12T15:28:40.541Z,54.95
2023-03-12T15:31:25.821Z,55.03
2023-03-12T15:34:11.464Z,54.83
2023-03-12T15:36:48.741Z,55.09
2023-03-12T15:39:15.412Z,55.27
2023-03-12T15:42:02.678Z,55.47
2023-03-12T15:44:54.625Z,55.49
2023-03-12T15:47:48.097Z,55.74
2023-03-12T15:50:27.734Z,55.72
2023-03-12T15:53:31.206Z,56.14
2023-03-12T15:59:32.069Z,55.11
2023-03-12T16:02:01.560Z,55.40
2023-03-12T16:04:48.579Z,55.68
2023-03-12T16:07:17.682Z,55.89
2023-03-12T16:09:47.465Z,56.09
2023-03-12T16:12:17.116Z,55.90
2023-03-12T16:15:01.903Z,55.95
2023-03-12T16:17:31.335Z,55.47
2023-03-12T16:19:57.939Z,55.90
2023-03-12T16:22:27.885Z,55.80
2023-03-12T16:24:56.593Z,55.50
2023-03-12T16:27:32.544Z,55.69
2023-03-12T16:29:59.782Z,55.70
2023-03-12T16:32:38.708Z,55.31
2023-03-12T16:35:35.520Z,55.59
2023-03-12T16:38:12.298Z,55.96
2023-03-12T16:40:43.546Z,56.24
2023-03-12T16:43:25.320Z,56.88
2023-03-12T16:48:39.744Z,56.68
2023-03-12T16:51:21.268Z,56.63
2023-03-12T16:53:55.843Z,56.81
2023-03-12T16:56:32.458Z,56.51
2023-03-12T16:59:04.929Z,56.73
2023-03-12T17:01:38.006Z,56.27
2023-03-12T17:04:10.591Z,56.30
2023-03-12T17:06:40.578Z,56.79
2023-03-12T17:09:15.862Z,56.92
2023-03-12T17:11:45.186Z,56.60
2023-03-12T17:14:43.292Z,57.00
2023-03-12T17:17:10.114Z,56.45
2023-03-12T17:22:40.651Z,55.74
2023-03-12T17:25:19.467Z,55.95
2023-03-12T17:27:46.211Z,55.75
2023-03-12T17:30:20.364Z,55.83
2023-03-12T17:32:49.044Z,56.26
2023-03-12T17:35:18.964Z,56.78
2023-03-12T17:37:48.466Z,56.21
2023-03-12T17:40:18.285Z,56.57
2023-03-12T17:42:45.016Z,56.51
2023-03-12T17:45:11.807Z,56.70
2023-03-12T17:47:44.385Z,56.90
2023-03-12T17:50:12.943Z,56.79
2023-03-12T17:52:39.708Z,57.22
2023-03-12T17:55:13.939Z,57.13
2023-03-12T17:57:40.887Z,57.14
2023-03-12T18:00:13.232Z,57.21
2023-03-12T18:03:04.831Z,57.92
2023-03-12T18:05:42.796Z,56.95
2023-03-12T18:08:17.663Z,57.39
2023-03-12T18:13:57.598Z,57.84
2023-03-12T18:16:27.321Z,58.61
2023-03-12T18:18:54.116Z,58.36
2023-03-12T18:21:39.105Z,57.17
2023-03-12T18:24:13.958Z,57.95
2023-03-12T18:26:48.071Z,58.25
2023-03-12T18:29:29.557Z,58.18
2023-03-12T18:32:09.544Z,57.57
2023-03-12T18:37:23.047Z,59.08
2023-03-12T18:39:49.688Z,58.77
2023-03-12T18:42:21.819Z,58.22
2023-03-12T18:44:51.466Z,58.32
2023-03-12T18:47:19.008Z,58.67
2023-03-12T18:49:55.074Z,58.89
2023-03-12T18:52:24.734Z,58.83
2023-03-12T18:54:51.475Z,59.55
2023-03-12T18:57:18.248Z,59.64
2023-03-12T18:59:50.206Z,58.49
2023-03-12T19:02:17.059Z,59.15
2023-03-12T19:04:44.247Z,58.38
2023-03-12T19:07:11.236Z,57.97
2023-03-12T19:09:37.959Z,57.92
2023-03-12T19:12:04.981Z,58.72
2023-03-12T19:14:31.790Z,57.96
2023-03-12T19:16:58.509Z,59.48
2023-03-12T19:19:25.199Z,58.76
2023-03-12T19:21:52.097Z,58.94
2023-03-12T19:24:18.842Z,58.96
2023-03-12T19:26:45.620Z,59.51
2023-03-12T19:29:17.271Z,60.33
2023-03-12T19:31:46.230Z,59.11
2023-03-12T19:34:17.440Z,59.03
2023-03-12T19:36:46.884Z,58.99
2023-03-12T19:39:21.066Z,59.05
2023-03-12T19:41:48.771Z,59.30
2023-03-12T19:44:15.524Z,58.40
2023-03-12T19:46:52.506Z,58.27
2023-03-12T19:52:11.533Z,59.39
2023-03-12T19:54:38.162Z,60.00
2023-03-12T19:57:09.256Z,59.52
2023-03-12T19:59:36.141Z,60.88
2023-03-12T20:02:07.272Z,60.54
2023-03-12T20:04:37.168Z,59.54
2023-03-12T20:07:03.944Z,59.30
2023-03-12T20:09:45.846Z,60.10
2023-03-12T20:12:12.551Z,60.55
2023-03-12T20:14:48.441Z,61.20
2023-03-12T20:17:18.177Z,61.51
2023-03-12T20:19:47.941Z,61.82
2023-03-12T20:22:15.923Z,60.79
2023-03-12T20:24:49.655Z,60.30
2023-03-12T20:27:25.795Z,60.88
2023-03-12T20:32:40.431Z,61.43
2023-03-12T20:35:07.307Z,60.73
2023-03-12T20:37:33.971Z,61.07
2023-03-12T20:40:08.512Z,62.59
2023-03-12T20:42:50.610Z,60.54
2023-03-12T20:45:17.207Z,62.92
2023-03-12T20:47:43.946Z,60.93
2023-03-12T20:50:13.929Z,60.61
2023-03-12T20:52:40.616Z,61.05
2023-03-12T20:55:13.531Z,61.02
2023-03-12T21:00:32.683Z,61.43
2023-03-12T21:03:02.420Z,61.36
2023-03-12T21:05:32.542Z,61.49
2023-03-12T21:07:59.304Z,61.94
2023-03-12T21:10:31.476Z,64.06
2023-03-12T21:13:04.128Z,62.05
2023-03-12T21:15:33.895Z,61.74
2023-03-12T21:18:03.663Z,61.96
2023-03-12T21:20:36.493Z,62.70
2023-03-12T21:23:09.793Z,63.20
2023-03-12T21:25:42.907Z,63.30
2023-03-12T21:28:10.747Z,62.92
2023-03-12T21:30:46.539Z,63.24
2023-03-12T21:33:45.152Z,63.50
2023-03-12T21:39:33.142Z,63.85
2023-03-12T21:42:05.706Z,64.05
2023-03-12T21:44:35.154Z,64.10
2023-03-12T21:47:01.929Z,64.85
2023-03-12T21:49:28.585Z,64.16
2023-03-12T21:51:58.294Z,64.51
2023-03-12T21:54:35.792Z,65.25
2023-03-12T21:57:06.010Z,64.64
2023-03-12T21:59:32.913Z,64.97
2023-03-12T22:02:02.794Z,63.98
2023-03-12T22:07:19.139Z,64.18
2023-03-12T22:10:00.514Z,64.40
2023-03-12T22:12:30.398Z,64.11
2023-03-12T22:14:56.998Z,64.25
2023-03-12T22:20:13.495Z,63.55
2023-03-12T22:22:42.239Z,63.44
2023-03-12T22:25:09.137Z,64.65
2023-03-12T22:27:44.054Z,65.18
2023-03-12T22:30:23.318Z,65.80
2023-03-12T22:32:52.310Z,66.02
2023-03-12T22:35:25.775Z,65.41
2023-03-12T22:37:55.864Z,65.48
2023-03-12T22:40:22.593Z,66.02
2023-03-12T22:43:06.208Z,64.72
2023-03-12T22:45:38.030Z,65.01
2023-03-12T22:48:04.966Z,64.80
2023-03-12T22:50:32.021Z,64.71
2023-03-12T22:52:59.206Z,64.42
2023-03-12T22:55:26.214Z,64.36
2023-03-12T22:57:53.270Z,64.10
2023-03-12T23:00:39.064Z,65.36
2023-03-12T23:03:29.067Z,65.74
2023-03-12T23:08:40.191Z,66.41
2023-03-12T23:11:18.161Z,66.66
2023-03-12T23:13:54.247Z,67.12
2023-03-12T23:16:23.268Z,67.31
2023-03-12T23:18:57.896Z,67.32
2023-03-12T23:21:25.124Z,68.31
2023-03-12T23:23:54.898Z,68.14
2023-03-12T23:26:24.628Z,68.12
2023-03-12T23:31:50.047Z,68.82
2023-03-12T23:34:22.775Z,69.21
2023-03-12T23:39:54.871Z,69.43
2023-03-12T23:42:27.426Z,68.36
2023-03-12T23:44:54.169Z,69.22
2023-03-12T23:47:24.038Z,69.20
2023-03-12T23:49:56.569Z,68.92
2023-03-12T23:52:26.805Z,68.29
2023-03-12T23:54:53.503Z,68.62
2023-03-12T23:57:26.389Z,68.60
2023-03-12T23:59:56.065Z,68.43
